sensor_id;sensor_type;location;lat;lon;timestamp;pressure;altitude;pressure_sealevel;temperature;humidity
39411;BME280;26579;43.238;23.124;2024-03-22T00:00:04;97188.03;;;9.28;39.98
39411;BME280;26579;43.238;23.124;2024-03-22T00:02:38;97185.25;;;9.18;40.27
39411;BME280;26579;43.238;23.124;2024-03-22T00:05:04;97180.28;;;9.15;40.56
39411;BME280;26579;43.238;23.124;2024-03-22T00:07:30;97182.72;;;9.05;40.46
39411;BME280;26579;43.238;23.124;2024-03-22T00:09:56;97193.06;;;8.94;41.31
39411;BME280;26579;43.238;23.124;2024-03-22T00:12:22;97183.41;;;8.83;41.39
39411;BME280;26579;43.238;23.124;2024-03-22T00:14:48;97188.22;;;8.77;41.18
39411;BME280;26579;43.238;23.124;2024-03-22T00:17:14;97174.22;;;8.67;41.84
39411;BME280;26579;43.238;23.124;2024-03-22T00:19:39;97174.66;;;8.60;41.90
39411;BME280;26579;43.238;23.124;2024-03-22T00:22:05;97177.47;;;8.57;42.57
39411;BME280;26579;43.238;23.124;2024-03-22T00:24:30;97180.88;;;8.58;42.29
39411;BME280;26579;43.238;23.124;2024-03-22T00:26:56;97175.69;;;8.58;42.32
39411;BME280;26579;43.238;23.124;2024-03-22T00:29:22;97161.28;;;8.54;42.15
39411;BME280;26579;43.238;23.124;2024-03-22T00:31:47;97181.84;;;8.57;42.47
39411;BME280;26579;43.238;23.124;2024-03-22T00:34:13;97166.31;;;8.44;42.83
39411;BME280;26579;43.238;23.124;2024-03-22T00:36:38;97167.22;;;8.43;42.42
39411;BME280;26579;43.238;23.124;2024-03-22T00:39:04;97163.72;;;8.44;42.42
39411;BME280;26579;43.238;23.124;2024-03-22T00:41:30;97170.25;;;8.50;42.50
39411;BME280;26579;43.238;23.124;2024-03-22T00:43:55;97161.31;;;8.41;42.02
39411;BME280;26579;43.238;23.124;2024-03-22T00:46:21;97170.03;;;8.40;42.60
39411;BME280;26579;43.238;23.124;2024-03-22T00:48:46;97162.97;;;8.42;42.49
39411;BME280;26579;43.238;23.124;2024-03-22T00:51:12;97170.84;;;8.53;42.38
39411;BME280;26579;43.238;23.124;2024-03-22T00:53:38;97179.34;;;8.55;42.36
39411;BME280;26579;43.238;23.124;2024-03-22T00:56:03;97174.66;;;8.60;41.62
39411;BME280;26579;43.238;23.124;2024-03-22T00:58:29;97176.94;;;8.65;42.22
39411;BME280;26579;43.238;23.124;2024-03-22T01:00:55;97177.97;;;8.63;41.71
39411;BME280;26579;43.238;23.124;2024-03-22T01:03:21;97182.78;;;8.56;42.45
39411;BME280;26579;43.238;23.124;2024-03-22T01:05:47;97178.28;;;8.58;41.08
39411;BME280;26579;43.238;23.124;2024-03-22T01:08:13;97187.63;;;8.60;42.00
39411;BME280;26579;43.238;23.124;2024-03-22T01:10:39;97180.72;;;8.48;42.06
39411;BME280;26579;43.238;23.124;2024-03-22T01:13:04;97186.28;;;8.55;42.64
39411;BME280;26579;43.238;23.124;2024-03-22T01:15:30;97188.88;;;8.55;42.62
39411;BME280;26579;43.238;23.124;2024-03-22T01:17:55;97187.06;;;8.44;42.50
39411;BME280;26579;43.238;23.124;2024-03-22T01:20:21;97193.06;;;8.45;43.19
39411;BME280;26579;43.238;23.124;2024-03-22T01:22:46;97189.75;;;8.43;42.75
39411;BME280;26579;43.238;23.124;2024-03-22T01:25:12;97186.84;;;8.47;42.22
39411;BME280;26579;43.238;23.124;2024-03-22T01:27:38;97195.53;;;8.46;42.75
39411;BME280;26579;43.238;23.124;2024-03-22T01:30:04;97187.44;;;8.51;42.66
39411;BME280;26579;43.238;23.124;2024-03-22T01:32:30;97200.34;;;8.52;43.80
39411;BME280;26579;43.238;23.124;2024-03-22T01:34:55;97204.19;;;8.47;44.32
39411;BME280;26579;43.238;23.124;2024-03-22T01:37:21;97200.03;;;8.44;43.72
39411;BME280;26579;43.238;23.124;2024-03-22T01:39:46;97206.88;;;8.45;43.57
39411;BME280;26579;43.238;23.124;2024-03-22T01:42:12;97209.47;;;8.45;43.36
39411;BME280;26579;43.238;23.124;2024-03-22T01:44:38;97201.47;;;8.48;43.69
39411;BME280;26579;43.238;23.124;2024-03-22T01:47:03;97205.31;;;8.43;44.33
39411;BME280;26579;43.238;23.124;2024-03-22T01:49:29;97201.44;;;8.23;44.36
39411;BME280;26579;43.238;23.124;2024-03-22T01:51:55;97199.81;;;8.09;44.75
39411;BME280;26579;43.238;23.124;2024-03-22T01:54:21;97202.72;;;8.04;45.09
39411;BME280;26579;43.238;23.124;2024-03-22T01:56:47;97202.91;;;8.01;44.65
39411;BME280;26579;43.238;23.124;2024-03-22T01:59:13;97202.72;;;8.04;45.21
39411;BME280;26579;43.238;23.124;2024-03-22T02:01:39;97204.56;;;8.02;45.48
39411;BME280;26579;43.238;23.124;2024-03-22T02:04:05;97205.91;;;7.95;45.02
39411;BME280;26579;43.238;23.124;2024-03-22T02:06:31;97201.84;;;7.91;44.72
39411;BME280;26579;43.238;23.124;2024-03-22T02:08:57;97206.94;;;7.92;44.76
39411;BME280;26579;43.238;23.124;2024-03-22T02:11:23;97204.16;;;7.96;44.63
39411;BME280;26579;43.238;23.124;2024-03-22T02:13:49;97203.31;;;7.95;44.40
39411;BME280;26579;43.238;23.124;2024-03-22T02:16:15;97213.50;;;7.98;44.67
39411;BME280;26579;43.238;23.124;2024-03-22T02:18:41;97207.66;;;7.82;45.48
39411;BME280;26579;43.238;23.124;2024-03-22T02:21:06;97204.84;;;7.72;45.50
39411;BME280;26579;43.238;23.124;2024-03-22T02:23:33;97220.94;;;7.90;45.34
39411;BME280;26579;43.238;23.124;2024-03-22T02:25:59;97211.72;;;7.86;45.28
39411;BME280;26579;43.238;23.124;2024-03-22T02:28:25;97213.78;;;7.68;45.91
39411;BME280;26579;43.238;23.124;2024-03-22T02:30:51;97229.06;;;7.58;46.27
39411;BME280;26579;43.238;23.124;2024-03-22T02:33:16;97227.50;;;7.56;46.90
39411;BME280;26579;43.238;23.124;2024-03-22T02:35:42;97220.25;;;7.48;47.35
39411;BME280;26579;43.238;23.124;2024-03-22T02:38:08;97234.25;;;7.58;47.50
39411;BME280;26579;43.238;23.124;2024-03-22T02:40:33;97226.66;;;7.42;47.73
39411;BME280;26579;43.238;23.124;2024-03-22T02:42:59;97232.03;;;7.39;47.10
39411;BME280;26579;43.238;23.124;2024-03-22T02:45:25;97225.88;;;7.28;47.23
39411;BME280;26579;43.238;23.124;2024-03-22T02:47:50;97210.88;;;7.33;47.16
39411;BME280;26579;43.238;23.124;2024-03-22T02:50:16;97223.97;;;7.44;46.54
39411;BME280;26579;43.238;23.124;2024-03-22T02:52:41;97230.09;;;7.56;46.48
39411;BME280;26579;43.238;23.124;2024-03-22T02:55:07;97239.56;;;7.57;46.76
39411;BME280;26579;43.238;23.124;2024-03-22T02:57:33;97228.25;;;7.58;46.34
39411;BME280;26579;43.238;23.124;2024-03-22T03:00:00;97238.13;;;7.65;46.37
39411;BME280;26579;43.238;23.124;2024-03-22T03:02:26;97230.75;;;7.59;46.42
39411;BME280;26579;43.238;23.124;2024-03-22T03:04:51;97227.44;;;7.57;46.22
39411;BME280;26579;43.238;23.124;2024-03-22T03:07:17;97220.13;;;7.49;46.20
39411;BME280;26579;43.238;23.124;2024-03-22T03:09:42;97212.03;;;7.41;45.84
39411;BME280;26579;43.238;23.124;2024-03-22T03:12:08;97228.03;;;7.48;46.68
39411;BME280;26579;43.238;23.124;2024-03-22T03:14:34;97221.88;;;7.36;47.01
39411;BME280;26579;43.238;23.124;2024-03-22T03:16:59;97232.13;;;7.38;47.30
39411;BME280;26579;43.238;23.124;2024-03-22T03:19:25;97234.13;;;7.20;47.94
39411;BME280;26579;43.238;23.124;2024-03-22T03:21:50;97238.91;;;7.26;47.57
39411;BME280;26579;43.238;23.124;2024-03-22T03:24:16;97220.56;;;7.16;47.32
39411;BME280;26579;43.238;23.124;2024-03-22T03:26:42;97237.16;;;7.26;46.66
39411;BME280;26579;43.238;23.124;2024-03-22T03:29:08;97234.28;;;7.31;46.59
39411;BME280;26579;43.238;23.124;2024-03-22T03:31:33;97225.38;;;7.35;46.08
39411;BME280;26579;43.238;23.124;2024-03-22T03:33:59;97231.38;;;7.36;46.14
39411;BME280;26579;43.238;23.124;2024-03-22T03:36:25;97232.75;;;7.41;46.06
39411;BME280;26579;43.238;23.124;2024-03-22T03:38:51;97221.13;;;7.34;46.24
39411;BME280;26579;43.238;23.124;2024-03-22T03:41:16;97230.53;;;7.22;47.00
39411;BME280;26579;43.238;23.124;2024-03-22T03:43:42;97237.94;;;7.14;47.90
39411;BME280;26579;43.238;23.124;2024-03-22T03:46:07;97234.88;;;7.22;47.59
39411;BME280;26579;43.238;23.124;2024-03-22T03:48:33;97236.19;;;7.15;47.67
39411;BME280;26579;43.238;23.124;2024-03-22T03:50:59;97253.75;;;7.10;47.80
39411;BME280;26579;43.238;23.124;2024-03-22T03:53:25;97244.91;;;6.99;48.49
39411;BME280;26579;43.238;23.124;2024-03-22T03:55:50;97247.88;;;6.93;48.61
39411;BME280;26579;43.238;23.124;2024-03-22T03:58:16;97249.47;;;6.82;48.26
39411;BME280;26579;43.238;23.124;2024-03-22T04:00:42;97251.63;;;6.75;49.60
39411;BME280;26579;43.238;23.124;2024-03-22T04:03:07;97252.66;;;6.72;48.93
39411;BME280;26579;43.238;23.124;2024-03-22T04:05:33;97240.72;;;6.70;49.19
39411;BME280;26579;43.238;23.124;2024-03-22T04:07:58;97257.91;;;6.71;49.30
39411;BME280;26579;43.238;23.124;2024-03-22T04:10:24;97251.63;;;6.61;49.67
39411;BME280;26579;43.238;23.124;2024-03-22T04:12:50;97261.03;;;6.76;49.33
39411;BME280;26579;43.238;23.124;2024-03-22T04:15:15;97253.84;;;6.81;49.14
39411;BME280;26579;43.238;23.124;2024-03-22T04:17:41;97257.53;;;6.63;49.64
39411;BME280;26579;43.238;23.124;2024-03-22T04:20:07;97259.56;;;6.72;50.04
39411;BME280;26579;43.238;23.124;2024-03-22T04:22:32;97262.81;;;6.61;50.27
39411;BME280;26579;43.238;23.124;2024-03-22T04:24:58;97265.66;;;6.56;50.11
39411;BME280;26579;43.238;23.124;2024-03-22T04:27:24;97268.16;;;6.58;50.16
39411;BME280;26579;43.238;23.124;2024-03-22T04:29:49;97262.50;;;6.51;50.31
39411;BME280;26579;43.238;23.124;2024-03-22T04:32:15;97279.41;;;6.43;50.74
39411;BME280;26579;43.238;23.124;2024-03-22T04:34:44;97276.28;;;6.38;51.16
39411;BME280;26579;43.238;23.124;2024-03-22T04:37:10;97273.34;;;6.44;51.01
39411;BME280;26579;43.238;23.124;2024-03-22T04:39:35;97274.53;;;6.38;51.14
39411;BME280;26579;43.238;23.124;2024-03-22T04:42:01;97273.03;;;6.48;50.92
39411;BME280;26579;43.238;23.124;2024-03-22T04:44:27;97277.22;;;6.51;50.85
39411;BME280;26579;43.238;23.124;2024-03-22T04:46:52;97278.16;;;6.64;50.54
39411;BME280;26579;43.238;23.124;2024-03-22T04:49:18;97282.56;;;6.48;51.29
39411;BME280;26579;43.238;23.124;2024-03-22T04:51:43;97272.97;;;6.64;51.10
39411;BME280;26579;43.238;23.124;2024-03-22T04:54:09;97295.44;;;6.78;50.75
39411;BME280;26579;43.238;23.124;2024-03-22T04:56:35;97284.91;;;6.67;51.14
39411;BME280;26579;43.238;23.124;2024-03-22T04:59:00;97286.09;;;6.90;50.54
39411;BME280;26579;43.238;23.124;2024-03-22T05:01:26;97290.66;;;7.13;49.73
39411;BME280;26579;43.238;23.124;2024-03-22T05:03:51;97299.97;;;7.30;49.81
39411;BME280;26579;43.238;23.124;2024-03-22T05:06:17;97293.66;;;7.61;48.71
39411;BME280;26579;43.238;23.124;2024-03-22T05:08:43;97301.38;;;8.15;47.27
39411;BME280;26579;43.238;23.124;2024-03-22T05:11:09;97300.94;;;8.98;45.65
39411;BME280;26579;43.238;23.124;2024-03-22T05:13:34;97296.94;;;10.38;42.42
39411;BME280;26579;43.238;23.124;2024-03-22T05:16:00;97291.13;;;11.68;39.38
39411;BME280;26579;43.238;23.124;2024-03-22T05:18:26;97301.22;;;12.47;37.64
39411;BME280;26579;43.238;23.124;2024-03-22T05:20:51;97282.31;;;13.26;36.15
39411;BME280;26579;43.238;23.124;2024-03-22T05:23:17;97313.94;;;14.02;34.59
39411;BME280;26579;43.238;23.124;2024-03-22T05:25:42;97297.66;;;14.47;33.66
39411;BME280;26579;43.238;23.124;2024-03-22T05:28:08;97297.53;;;14.58;33.38
39411;BME280;26579;43.238;23.124;2024-03-22T05:30:34;97297.38;;;14.60;33.53
39411;BME280;26579;43.238;23.124;2024-03-22T05:32:59;97298.38;;;14.30;33.74
39411;BME280;26579;43.238;23.124;2024-03-22T05:35:25;97312.72;;;13.87;34.63
39411;BME280;26579;43.238;23.124;2024-03-22T05:37:50;97313.66;;;13.66;34.86
39411;BME280;26579;43.238;23.124;2024-03-22T05:40:16;97308.91;;;13.31;35.62
39411;BME280;26579;43.238;23.124;2024-03-22T05:42:42;97311.97;;;13.36;35.07
39411;BME280;26579;43.238;23.124;2024-03-22T05:45:08;97308.53;;;13.14;35.03
39411;BME280;26579;43.238;23.124;2024-03-22T05:47:34;97318.53;;;12.69;35.28
39411;BME280;26579;43.238;23.124;2024-03-22T05:50:00;97324.78;;;12.78;35.82
39411;BME280;26579;43.238;23.124;2024-03-22T05:52:25;97319.19;;;12.92;35.15
39411;BME280;26579;43.238;23.124;2024-03-22T05:54:51;97313.31;;;12.69;35.19
39411;BME280;26579;43.238;23.124;2024-03-22T05:57:17;97323.31;;;12.64;35.56
39411;BME280;26579;43.238;23.124;2024-03-22T05:59:42;97326.13;;;12.51;35.88
39411;BME280;26579;43.238;23.124;2024-03-22T06:02:08;97323.44;;;12.20;37.07
39411;BME280;26579;43.238;23.124;2024-03-22T06:04:33;97328.28;;;11.49;37.51
39411;BME280;26579;43.238;23.124;2024-03-22T06:06:59;97330.34;;;11.23;38.64
39411;BME280;26579;43.238;23.124;2024-03-22T06:09:26;97325.25;;;10.77;38.76
39411;BME280;26579;43.238;23.124;2024-03-22T06:11:52;97342.69;;;10.41;39.63
39411;BME280;26579;43.238;23.124;2024-03-22T06:14:18;97345.78;;;10.11;40.68
39411;BME280;26579;43.238;23.124;2024-03-22T06:16:43;97338.09;;;9.85;41.13
39411;BME280;26579;43.238;23.124;2024-03-22T06:19:09;97346.56;;;9.76;41.49
39411;BME280;26579;43.238;23.124;2024-03-22T06:21:35;97345.59;;;9.66;42.50
39411;BME280;26579;43.238;23.124;2024-03-22T06:24:01;97346.28;;;9.68;42.45
39411;BME280;26579;43.238;23.124;2024-03-22T06:26:26;97356.53;;;9.82;43.06
39411;BME280;26579;43.238;23.124;2024-03-22T06:28:52;97357.13;;;10.10;42.28
39411;BME280;26579;43.238;23.124;2024-03-22T06:31:18;97351.69;;;10.37;42.24
39411;BME280;26579;43.238;23.124;2024-03-22T06:33:43;97352.72;;;10.81;41.33
39411;BME280;26579;43.238;23.124;2024-03-22T06:36:09;97354.03;;;10.86;40.85
39411;BME280;26579;43.238;23.124;2024-03-22T06:38:34;97349.50;;;11.33;41.17
39411;BME280;26579;43.238;23.124;2024-03-22T06:41:00;97351.88;;;11.37;41.05
39411;BME280;26579;43.238;23.124;2024-03-22T06:43:26;97357.53;;;11.64;40.73
39411;BME280;26579;43.238;23.124;2024-03-22T06:45:51;97360.28;;;11.51;40.72
39411;BME280;26579;43.238;23.124;2024-03-22T06:48:17;97351.66;;;11.83;41.07
39411;BME280;26579;43.238;23.124;2024-03-22T06:50:43;97354.84;;;11.98;40.42
39411;BME280;26579;43.238;23.124;2024-03-22T06:53:08;97373.50;;;11.93;40.49
39411;BME280;26579;43.238;23.124;2024-03-22T06:55:34;97370.09;;;12.14;40.75
39411;BME280;26579;43.238;23.124;2024-03-22T06:58:00;97370.53;;;11.87;40.62
39411;BME280;26579;43.238;23.124;2024-03-22T07:00:25;97379.78;;;12.23;40.18
39411;BME280;26579;43.238;23.124;2024-03-22T07:02:51;97374.28;;;12.05;40.55
39411;BME280;26579;43.238;23.124;2024-03-22T07:05:16;97379.56;;;11.60;41.63
39411;BME280;26579;43.238;23.124;2024-03-22T07:07:42;97375.41;;;11.91;41.65
39411;BME280;26579;43.238;23.124;2024-03-22T07:10:08;97366.28;;;12.18;40.51
39411;BME280;26579;43.238;23.124;2024-03-22T07:12:34;97374.09;;;11.86;41.30
39411;BME280;26579;43.238;23.124;2024-03-22T07:15:00;97384.22;;;12.43;40.77
39411;BME280;26579;43.238;23.124;2024-03-22T07:17:29;97377.59;;;12.60;40.24
39411;BME280;26579;43.238;23.124;2024-03-22T07:19:55;97385.81;;;12.56;39.91
39411;BME280;26579;43.238;23.124;2024-03-22T07:22:20;97382.00;;;12.81;39.91
39411;BME280;26579;43.238;23.124;2024-03-22T07:24:46;97377.31;;;12.84;39.55
39411;BME280;26579;43.238;23.124;2024-03-22T07:27:12;97380.63;;;13.07;39.41
39411;BME280;26579;43.238;23.124;2024-03-22T07:29:38;97381.34;;;13.19;39.14
39411;BME280;26579;43.238;23.124;2024-03-22T07:32:04;97377.09;;;13.49;38.71
39411;BME280;26579;43.238;23.124;2024-03-22T07:34:29;97384.63;;;13.82;39.28
39411;BME280;26579;43.238;23.124;2024-03-22T07:36:55;97379.13;;;14.24;37.70
39411;BME280;26579;43.238;23.124;2024-03-22T07:39:21;97381.34;;;14.10;36.96
39411;BME280;26579;43.238;23.124;2024-03-22T07:41:46;97388.91;;;13.93;37.09
39411;BME280;26579;43.238;23.124;2024-03-22T07:44:12;97383.81;;;14.01;37.45
39411;BME280;26579;43.238;23.124;2024-03-22T07:46:38;97386.03;;;13.96;37.60
39411;BME280;26579;43.238;23.124;2024-03-22T07:49:03;97375.84;;;14.03;37.25
39411;BME280;26579;43.238;23.124;2024-03-22T07:51:29;97379.13;;;13.95;37.60
39411;BME280;26579;43.238;23.124;2024-03-22T07:53:55;97368.81;;;14.03;37.45
39411;BME280;26579;43.238;23.124;2024-03-22T07:56:21;97374.06;;;14.52;36.99
39411;BME280;26579;43.238;23.124;2024-03-22T07:58:46;97377.91;;;14.67;36.75
39411;BME280;26579;43.238;23.124;2024-03-22T08:01:12;97375.75;;;15.10;36.97
39411;BME280;26579;43.238;23.124;2024-03-22T08:03:37;97366.44;;;15.25;34.69
39411;BME280;26579;43.238;23.124;2024-03-22T08:06:03;97377.91;;;15.24;35.40
39411;BME280;26579;43.238;23.124;2024-03-22T08:08:29;97372.44;;;15.08;34.80
39411;BME280;26579;43.238;23.124;2024-03-22T08:10:55;97374.59;;;15.50;35.09
39411;BME280;26579;43.238;23.124;2024-03-22T08:13:20;97370.75;;;15.16;35.54
39411;BME280;26579;43.238;23.124;2024-03-22T08:15:46;97378.44;;;14.71;36.51
39411;BME280;26579;43.238;23.124;2024-03-22T08:18:12;97363.16;;;15.13;35.71
39411;BME280;26579;43.238;23.124;2024-03-22T08:20:37;97369.63;;;15.47;35.12
39411;BME280;26579;43.238;23.124;2024-03-22T08:23:03;97368.13;;;14.60;36.33
39411;BME280;26579;43.238;23.124;2024-03-22T08:25:29;97375.09;;;14.98;36.26
39411;BME280;26579;43.238;23.124;2024-03-22T08:27:54;97372.75;;;15.32;35.74
39411;BME280;26579;43.238;23.124;2024-03-22T08:30:20;97379.84;;;15.12;35.85
39411;BME280;26579;43.238;23.124;2024-03-22T08:32:45;97367.47;;;15.42;36.09
39411;BME280;26579;43.238;23.124;2024-03-22T08:35:11;97375.47;;;15.03;35.70
39411;BME280;26579;43.238;23.124;2024-03-22T08:37:37;97373.81;;;15.02;35.93
39411;BME280;26579;43.238;23.124;2024-03-22T08:40:02;97358.97;;;14.93;35.55
39411;BME280;26579;43.238;23.124;2024-03-22T08:42:28;97366.72;;;14.75;36.10
39411;BME280;26579;43.238;23.124;2024-03-22T08:44:54;97365.88;;;14.84;36.04
39411;BME280;26579;43.238;23.124;2024-03-22T08:47:19;97356.88;;;14.97;35.90
39411;BME280;26579;43.238;23.124;2024-03-22T08:49:45;97357.09;;;15.40;35.93
39411;BME280;26579;43.238;23.124;2024-03-22T08:52:10;97362.41;;;15.86;34.55
39411;BME280;26579;43.238;23.124;2024-03-22T08:54:36;97366.59;;;15.97;33.53
39411;BME280;26579;43.238;23.124;2024-03-22T08:57:02;97347.41;;;16.50;33.39
39411;BME280;26579;43.238;23.124;2024-03-22T08:59:27;97343.34;;;16.20;32.36
39411;BME280;26579;43.238;23.124;2024-03-22T09:01:53;97344.84;;;15.59;32.54
39411;BME280;26579;43.238;23.124;2024-03-22T09:04:19;97342.91;;;15.61;32.80
39411;BME280;26579;43.238;23.124;2024-03-22T09:06:45;97342.00;;;15.25;33.21
39411;BME280;26579;43.238;23.124;2024-03-22T09:09:10;97346.91;;;15.37;33.05
39411;BME280;26579;43.238;23.124;2024-03-22T09:11:36;97336.81;;;15.43;32.36
39411;BME280;26579;43.238;23.124;2024-03-22T09:14:01;97338.13;;;15.56;32.70
39411;BME280;26579;43.238;23.124;2024-03-22T09:16:27;97335.47;;;15.29;32.33
39411;BME280;26579;43.238;23.124;2024-03-22T09:18:53;97335.50;;;15.56;32.15
39411;BME280;26579;43.238;23.124;2024-03-22T09:21:18;97335.44;;;15.66;32.06
39411;BME280;26579;43.238;23.124;2024-03-22T09:23:44;97317.25;;;15.55;31.99
39411;BME280;26579;43.238;23.124;2024-03-22T09:26:09;97315.47;;;15.83;32.21
39411;BME280;26579;43.238;23.124;2024-03-22T09:28:35;97320.28;;;16.32;31.75
39411;BME280;26579;43.238;23.124;2024-03-22T09:31:05;97327.16;;;16.24;31.99
39411;BME280;26579;43.238;23.124;2024-03-22T09:33:30;97321.31;;;16.57;32.45
39411;BME280;26579;43.238;23.124;2024-03-22T09:35:56;97319.56;;;16.65;32.08
39411;BME280;26579;43.238;23.124;2024-03-22T09:38:22;97320.00;;;16.17;32.17
39411;BME280;26579;43.238;23.124;2024-03-22T09:40:47;97322.03;;;16.41;32.44
39411;BME280;26579;43.238;23.124;2024-03-22T09:43:15;97305.44;;;16.66;33.53
39411;BME280;26579;43.238;23.124;2024-03-22T09:45:42;97318.47;;;16.94;31.96
39411;BME280;26579;43.238;23.124;2024-03-22T09:48:08;97313.31;;;17.18;31.36
39411;BME280;26579;43.238;23.124;2024-03-22T09:50:35;97305.56;;;17.51;30.88
39411;BME280;26579;43.238;23.124;2024-03-22T09:53:00;97308.56;;;17.73;29.37
39411;BME280;26579;43.238;23.124;2024-03-22T09:55:28;97300.84;;;17.79;29.15
39411;BME280;26579;43.238;23.124;2024-03-22T09:57:55;97305.34;;;17.45;29.59
39411;BME280;26579;43.238;23.124;2024-03-22T10:00:22;97295.03;;;17.51;30.94
39411;BME280;26579;43.238;23.124;2024-03-22T10:02:48;97285.22;;;17.94;30.18
39411;BME280;26579;43.238;23.124;2024-03-22T10:05:15;97290.91;;;17.65;28.93
39411;BME280;26579;43.238;23.124;2024-03-22T10:07:41;97296.88;;;17.25;29.81
39411;BME280;26579;43.238;23.124;2024-03-22T10:10:07;97297.09;;;16.97;29.71
39411;BME280;26579;43.238;23.124;2024-03-22T10:12:32;97288.84;;;17.26;29.57
39411;BME280;26579;43.238;23.124;2024-03-22T10:14:58;97288.47;;;17.63;30.33
39411;BME280;26579;43.238;23.124;2024-03-22T10:17:26;97296.59;;;17.78;28.98
39411;BME280;26579;43.238;23.124;2024-03-22T10:19:52;97287.88;;;17.94;29.03
39411;BME280;26579;43.238;23.124;2024-03-22T10:22:18;97288.56;;;18.13;27.20
39411;BME280;26579;43.238;23.124;2024-03-22T10:24:44;97287.56;;;18.22;27.56
39411;BME280;26579;43.238;23.124;2024-03-22T10:27:10;97290.22;;;18.30;28.90
39411;BME280;26579;43.238;23.124;2024-03-22T10:29:36;97283.75;;;18.57;28.54
39411;BME280;26579;43.238;23.124;2024-03-22T10:32:02;97277.75;;;18.88;28.21
39411;BME280;26579;43.238;23.124;2024-03-22T10:34:28;97263.47;;;18.74;25.89
39411;BME280;26579;43.238;23.124;2024-03-22T10:36:55;97276.66;;;18.41;26.53
39411;BME280;26579;43.238;23.124;2024-03-22T10:39:22;97275.19;;;18.47;27.87
39411;BME280;26579;43.238;23.124;2024-03-22T10:41:49;97276.03;;;18.31;26.20
39411;BME280;26579;43.238;23.124;2024-03-22T10:44:15;97266.91;;;18.58;25.51
39411;BME280;26579;43.238;23.124;2024-03-22T10:46:46;97263.47;;;18.82;26.47
39411;BME280;26579;43.238;23.124;2024-03-22T10:49:19;97268.06;;;18.55;25.45
39411;BME280;26579;43.238;23.124;2024-03-22T10:51:59;97262.00;;;18.47;25.61
39411;BME280;26579;43.238;23.124;2024-03-22T10:54:35;97263.13;;;18.85;26.58
39411;BME280;26579;43.238;23.124;2024-03-22T10:57:02;97252.66;;;19.08;27.50
39411;BME280;26579;43.238;23.124;2024-03-22T10:59:33;97249.44;;;19.21;27.80
39411;BME280;26579;43.238;23.124;2024-03-22T11:02:03;97244.88;;;19.07;26.37
39411;BME280;26579;43.238;23.124;2024-03-22T11:04:30;97246.97;;;18.80;25.16
39411;BME280;26579;43.238;23.124;2024-03-22T11:06:57;97248.28;;;18.68;26.60
39411;BME280;26579;43.238;23.124;2024-03-22T11:09:23;97231.38;;;18.38;25.86
39411;BME280;26579;43.238;23.124;2024-03-22T11:11:51;97238.81;;;17.85;26.96
39411;BME280;26579;43.238;23.124;2024-03-22T11:14:17;97239.81;;;18.17;27.55
39411;BME280;26579;43.238;23.124;2024-03-22T11:16:44;97231.38;;;18.29;27.47
39411;BME280;26579;43.238;23.124;2024-03-22T11:19:09;97227.72;;;18.47;27.42
39411;BME280;26579;43.238;23.124;2024-03-22T11:21:35;97222.75;;;18.76;26.47
39411;BME280;26579;43.238;23.124;2024-03-22T11:24:01;97228.59;;;19.03;28.01
39411;BME280;26579;43.238;23.124;2024-03-22T11:26:27;97221.75;;;18.77;25.84
39411;BME280;26579;43.238;23.124;2024-03-22T11:28:52;97221.38;;;18.89;26.55
39411;BME280;26579;43.238;23.124;2024-03-22T11:31:18;97213.75;;;18.38;26.83
39411;BME280;26579;43.238;23.124;2024-03-22T11:33:44;97213.69;;;18.71;28.11
39411;BME280;26579;43.238;23.124;2024-03-22T11:36:09;97202.13;;;18.80;26.48
39411;BME280;26579;43.238;23.124;2024-03-22T11:38:35;97195.28;;;18.38;26.34
39411;BME280;26579;43.238;23.124;2024-03-22T11:41:01;97198.91;;;18.53;26.53
39411;BME280;26579;43.238;23.124;2024-03-22T11:43:28;97195.38;;;18.77;25.84
39411;BME280;26579;43.238;23.124;2024-03-22T11:45:55;97197.31;;;18.03;26.36
39411;BME280;26579;43.238;23.124;2024-03-22T11:48:21;97186.63;;;17.88;28.52
39411;BME280;26579;43.238;23.124;2024-03-22T11:50:49;97189.59;;;18.18;28.51
39411;BME280;26579;43.238;23.124;2024-03-22T11:53:16;97184.09;;;18.44;27.76
39411;BME280;26579;43.238;23.124;2024-03-22T11:55:41;97182.25;;;18.53;26.17
39411;BME280;26579;43.238;23.124;2024-03-22T11:58:11;97176.69;;;18.40;26.82
39411;BME280;26579;43.238;23.124;2024-03-22T12:00:37;97172.09;;;18.25;26.44
39411;BME280;26579;43.238;23.124;2024-03-22T12:03:06;97177.06;;;17.63;27.37
39411;BME280;26579;43.238;23.124;2024-03-22T12:05:32;97178.25;;;18.01;27.97
39411;BME280;26579;43.238;23.124;2024-03-22T12:07:58;97172.59;;;18.21;28.12
39411;BME280;26579;43.238;23.124;2024-03-22T12:10:23;97152.47;;;18.44;29.03
39411;BME280;26579;43.238;23.124;2024-03-22T12:12:49;97162.31;;;18.50;26.61
39411;BME280;26579;43.238;23.124;2024-03-22T12:15:15;97160.59;;;18.18;27.23
39411;BME280;26579;43.238;23.124;2024-03-22T12:17:40;97157.47;;;17.65;27.94
39411;BME280;26579;43.238;23.124;2024-03-22T12:20:08;97163.66;;;16.99;28.15
39411;BME280;26579;43.238;23.124;2024-03-22T12:22:34;97150.56;;;17.32;29.46
39411;BME280;26579;43.238;23.124;2024-03-22T12:25:00;97155.75;;;16.99;28.84
39411;BME280;26579;43.238;23.124;2024-03-22T12:27:26;97154.25;;;16.54;29.14
39411;BME280;26579;43.238;23.124;2024-03-22T12:29:52;97149.63;;;16.48;29.62
39411;BME280;26579;43.238;23.124;2024-03-22T12:32:17;97153.50;;;16.70;29.78
39411;BME280;26579;43.238;23.124;2024-03-22T12:34:43;97144.91;;;16.94;29.52
39411;BME280;26579;43.238;23.124;2024-03-22T12:37:09;97147.38;;;17.04;28.43
39411;BME280;26579;43.238;23.124;2024-03-22T12:39:35;97141.81;;;17.15;27.89
39411;BME280;26579;43.238;23.124;2024-03-22T12:42:01;97148.91;;;17.23;27.78
39411;BME280;26579;43.238;23.124;2024-03-22T12:44:26;97148.09;;;17.55;28.83
39411;BME280;26579;43.238;23.124;2024-03-22T12:46:52;97133.97;;;17.72;27.11